createdAt,value
2022-08-17T00:00:43.879Z,18.90
2022-08-17T00:03:11.113Z,18.90
2022-08-17T00:05:44.975Z,18.90
2022-08-17T00:08:14.987Z,18.90
2022-08-17T00:10:45.463Z,18.80
2022-08-17T00:13:20.920Z,18.80
2022-08-17T00:15:49.264Z,18.80
2022-08-17T00:19:00.959Z,18.80
2022-08-17T00:21:10.393Z,18.80
2022-08-17T00:23:44.262Z,18.80
2022-08-17T00:26:44.188Z,18.90
2022-08-17T00:29:07.630Z,18.80
2022-08-17T00:31:37.179Z,18.90
2022-08-17T00:34:06.768Z,18.90
2022-08-17T00:36:35.498Z,18.80
2022-08-17T00:39:04.421Z,18.80
2022-08-17T00:41:32.616Z,18.80
2022-08-17T00:44:04.879Z,18.80
2022-08-17T00:46:36.784Z,18.80
2022-08-17T00:49:06.951Z,18.80
2022-08-17T00:51:42.120Z,18.70
2022-08-17T00:54:14.025Z,18.70
2022-08-17T00:56:46.834Z,18.70
2022-08-17T00:59:19.775Z,18.70
2022-08-17T01:01:51.050Z,18.60
2022-08-17T01:07:11.209Z,18.60
2022-08-17T01:09:39.473Z,18.50
2022-08-17T01:12:10.319Z,18.50
2022-08-17T01:14:39.547Z,18.50
2022-08-17T01:17:10.204Z,18.50
2022-08-17T01:19:41.195Z,18.50
2022-08-17T01:22:18.742Z,18.50
2022-08-17T01:24:51.212Z,18.50
2022-08-17T01:27:21.006Z,18.50
2022-08-17T01:29:58.158Z,18.50
2022-08-17T01:32:27.282Z,18.50
2022-08-17T01:34:56.214Z,18.50
2022-08-17T01:37:34.547Z,18.50
2022-08-17T01:40:07.379Z,18.50
2022-08-17T01:42:40.900Z,18.50
2022-08-17T01:45:12.543Z,18.50
2022-08-17T01:47:41.854Z,18.50
2022-08-17T01:50:14.607Z,18.50
2022-08-17T01:52:45.545Z,18.50
2022-08-17T01:55:16.937Z,18.50
2022-08-17T01:57:45.700Z,18.40
2022-08-17T02:00:15.061Z,18.40
2022-08-17T02:02:46.020Z,18.40
2022-08-17T02:05:14.823Z,18.40
2022-08-17T02:07:59.500Z,18.40
2022-08-17T02:10:33.946Z,18.30
2022-08-17T02:13:03.424Z,18.30
2022-08-17T02:15:32.363Z,18.30
2022-08-17T02:18:00.693Z,18.30
2022-08-17T02:20:41.552Z,18.30
2022-08-17T02:23:14.478Z,18.30
2022-08-17T02:25:47.560Z,18.30
2022-08-17T02:28:16.143Z,18.20
2022-08-17T02:31:00.691Z,18.20
2022-08-17T02:33:41.746Z,18.20
2022-08-17T02:36:12.992Z,18.20
2022-08-17T02:38:42.822Z,18.10
2022-08-17T02:41:13.014Z,18.10
2022-08-17T02:43:41.279Z,18.10
2022-08-17T02:46:09.851Z,18.10
2022-08-17T02:48:37.968Z,18.10
2022-08-17T02:51:06.001Z,18.10
2022-08-17T02:53:36.031Z,18.00
2022-08-17T02:56:05.967Z,18.00
2022-08-17T02:58:35.664Z,17.90
2022-08-17T03:01:05.710Z,17.90
2022-08-17T03:03:34.115Z,17.90
2022-08-17T03:06:03.419Z,17.90
2022-08-17T03:08:31.451Z,17.90
2022-08-17T03:10:59.754Z,17.90
2022-08-17T03:13:30.887Z,17.90
2022-08-17T03:15:59.592Z,17.80
2022-08-17T03:18:28.048Z,17.80
2022-08-17T03:20:59.121Z,17.80
2022-08-17T03:23:29.569Z,17.80
2022-08-17T03:25:58.410Z,17.80
2022-08-17T03:28:29.298Z,17.80
2022-08-17T03:30:57.717Z,17.80
2022-08-17T03:33:25.769Z,17.90
2022-08-17T03:35:53.998Z,17.90
2022-08-17T03:38:23.274Z,17.80
2022-08-17T03:40:58.819Z,17.80
2022-08-17T03:43:32.610Z,17.90
2022-08-17T03:46:32.393Z,17.90
2022-08-17T03:49:22.164Z,17.80
2022-08-17T03:52:07.706Z,17.80
2022-08-17T03:54:53.254Z,17.80
2022-08-17T03:57:21.746Z,17.90
2022-08-17T03:59:51.775Z,17.90
2022-08-17T04:02:24.113Z,18.00
2022-08-17T04:04:52.742Z,18.10
2022-08-17T04:07:21.928Z,18.20
2022-08-17T04:09:50.323Z,18.30
2022-08-17T04:12:22.318Z,18.40
2022-08-17T04:14:54.757Z,18.40
2022-08-17T04:17:25.696Z,18.40
2022-08-17T04:19:54.778Z,18.50
2022-08-17T04:22:32.233Z,18.50
2022-08-17T04:25:09.272Z,18.50
2022-08-17T04:27:37.952Z,18.60
2022-08-17T04:30:08.594Z,18.70
2022-08-17T04:33:02.930Z,18.80
2022-08-17T04:35:36.061Z,18.80
2022-08-17T04:38:04.319Z,18.90
2022-08-17T04:40:49.924Z,19.00
2022-08-17T04:43:20.749Z,19.00
2022-08-17T04:45:56.375Z,19.10
2022-08-17T04:48:27.975Z,19.10
2022-08-17T04:51:09.437Z,19.20
2022-08-17T04:53:38.117Z,19.20
2022-08-17T04:56:06.638Z,19.30
2022-08-17T04:58:35.107Z,19.40
2022-08-17T05:01:05.827Z,19.40
2022-08-17T05:03:34.153Z,19.40
2022-08-17T05:06:02.296Z,19.40
2022-08-17T05:08:30.810Z,19.40
2022-08-17T05:10:58.825Z,19.40
2022-08-17T05:13:29.614Z,19.40
2022-08-17T05:16:01.850Z,19.40
2022-08-17T05:18:32.180Z,19.50
2022-08-17T05:21:00.631Z,19.60
2022-08-17T05:23:41.830Z,19.70
2022-08-17T05:26:20.416Z,19.80
2022-08-17T05:29:00.496Z,20.00
2022-08-17T05:31:31.774Z,20.20
2022-08-17T05:34:01.586Z,20.30
2022-08-17T05:36:43.385Z,20.50
2022-08-17T05:39:17.063Z,20.60
2022-08-17T05:41:48.871Z,20.60
2022-08-17T05:44:17.913Z,20.60
2022-08-17T05:46:50.654Z,20.60
2022-08-17T05:49:27.103Z,20.60
2022-08-17T05:52:20.064Z,20.70
2022-08-17T05:55:02.511Z,20.90
2022-08-17T05:57:56.454Z,20.90
2022-08-17T06:00:30.072Z,21.10
2022-08-17T06:03:16.494Z,21.20
2022-08-17T06:05:55.366Z,21.40
2022-08-17T06:08:33.305Z,21.50
2022-08-17T06:11:10.135Z,21.70
2022-08-17T06:14:02.929Z,21.90
2022-08-17T06:16:36.660Z,22.00
2022-08-17T06:19:11.196Z,22.20
2022-08-17T06:21:43.780Z,22.40
2022-08-17T06:24:29.942Z,22.50
2022-08-17T06:27:02.985Z,22.70
2022-08-17T06:29:39.849Z,22.80
2022-08-17T06:32:12.955Z,23.00
2022-08-17T06:34:44.273Z,23.20
2022-08-17T06:37:27.349Z,23.40
2022-08-17T06:40:03.617Z,23.50
2022-08-17T06:43:02.011Z,23.70
2022-08-17T06:45:37.250Z,24.00
2022-08-17T06:48:12.464Z,24.40
2022-08-17T06:50:45.083Z,25.00
2022-08-17T06:53:23.508Z,25.80
2022-08-17T06:55:59.815Z,26.80
2022-08-17T06:58:31.979Z,27.80
2022-08-17T07:01:09.443Z,28.50
2022-08-17T07:03:43.982Z,29.00
2022-08-17T07:06:16.022Z,29.00
2022-08-17T07:08:54.757Z,28.90
2022-08-17T07:11:30.052Z,28.90
2022-08-17T07:14:15.312Z,28.80
2022-08-17T07:16:48.184Z,28.80
2022-08-17T07:19:17.880Z,28.90
2022-08-17T07:21:59.313Z,29.20
2022-08-17T07:24:37.294Z,29.80
2022-08-17T07:27:13.863Z,30.40
2022-08-17T07:29:48.818Z,30.90
2022-08-17T07:32:21.331Z,31.40
2022-08-17T07:35:12.889Z,31.80
2022-08-17T07:37:46.852Z,32.20
2022-08-17T07:40:28.032Z,32.60
2022-08-17T07:43:05.004Z,33.10
2022-08-17T07:45:52.293Z,33.70
2022-08-17T07:48:25.271Z,34.10
2022-08-17T07:50:54.048Z,34.50
2022-08-17T07:53:25.271Z,35.10
2022-08-17T07:55:55.014Z,35.10
2022-08-17T07:58:26.016Z,35.40
2022-08-17T08:01:07.211Z,35.50
2022-08-17T08:03:42.660Z,35.50
2022-08-17T08:06:20.876Z,35.60
2022-08-17T08:08:53.671Z,36.00
2022-08-17T08:11:34.604Z,36.80
2022-08-17T08:14:21.672Z,36.80
2022-08-17T08:17:01.866Z,36.70
2022-08-17T08:19:30.540Z,37.40
2022-08-17T08:22:05.665Z,37.90
2022-08-17T08:24:55.830Z,38.60
2022-08-17T08:27:35.723Z,39.40
2022-08-17T08:30:08.488Z,40.10
2022-08-17T08:33:07.630Z,41.00
2022-08-17T08:35:44.394Z,41.80
2022-08-17T08:38:22.439Z,42.50
2022-08-17T08:41:17.440Z,43.30
2022-08-17T08:43:58.592Z,43.90
2022-08-17T08:46:36.283Z,44.50
2022-08-17T08:50:01.373Z,45.00
2022-08-17T08:52:36.727Z,45.20
2022-08-17T08:55:13.880Z,45.10
2022-08-17T08:57:49.391Z,44.60
2022-08-17T09:00:21.251Z,44.70
2022-08-17T09:03:09.420Z,44.80
2022-08-17T09:05:52.867Z,45.40
2022-08-17T09:08:32.280Z,46.50
2022-08-17T09:11:06.159Z,47.70
2022-08-17T09:13:45.784Z,48.70
2022-08-17T09:16:30.686Z,50.20
2022-08-17T09:19:05.340Z,50.90
2022-08-17T09:21:48.260Z,51.40
2022-08-17T09:24:24.104Z,51.50
2022-08-17T09:26:58.973Z,50.90
2022-08-17T09:29:30.502Z,50.70
2022-08-17T09:32:03.811Z,50.00
2022-08-17T09:34:38.969Z,49.40
2022-08-17T09:37:23.177Z,49.40
2022-08-17T09:40:02.295Z,49.80
2022-08-17T09:42:38.863Z,50.50
2022-08-17T09:45:17.262Z,51.50
2022-08-17T09:47:51.190Z,52.70
2022-08-17T09:51:04.140Z,52.90
2022-08-17T09:53:13.044Z,53.30
2022-08-17T09:55:59.991Z,53.40
2022-08-17T09:58:40.507Z,53.20
2022-08-17T10:01:21.310Z,53.10
2022-08-17T10:04:09.208Z,53.50
2022-08-17T10:06:47.318Z,54.30
2022-08-17T10:09:18.781Z,54.60
2022-08-17T10:12:12.155Z,55.20
2022-08-17T10:14:55.164Z,53.70
2022-08-17T10:17:31.162Z,53.30
2022-08-17T10:20:07.463Z,53.80
2022-08-17T10:22:56.118Z,54.00
2022-08-17T10:25:54.796Z,52.80
2022-08-17T10:28:30.005Z,51.10
2022-08-17T10:31:33.680Z,50.20
2022-08-17T10:34:30.013Z,50.40
2022-08-17T10:37:19.598Z,50.70
2022-08-17T10:39:54.141Z,49.50
2022-08-17T10:42:30.822Z,48.40
2022-08-17T10:45:06.344Z,46.70
2022-08-17T10:48:04.331Z,46.10
2022-08-17T10:50:59.174Z,45.50
2022-08-17T10:54:01.707Z,44.70
2022-08-17T10:56:48.097Z,44.00
2022-08-17T10:59:54.048Z,44.30
2022-08-17T11:02:31.588Z,44.70
2022-08-17T11:05:23.865Z,44.40
2022-08-17T11:08:10.687Z,43.40
2022-08-17T11:10:54.935Z,43.30
2022-08-17T11:13:37.735Z,42.90
2022-08-17T11:16:25.693Z,42.30
2022-08-17T11:19:29.073Z,41.70
2022-08-17T11:22:13.380Z,41.10
2022-08-17T11:24:47.975Z,41.20
2022-08-17T11:27:27.153Z,41.30
2022-08-17T11:30:01.765Z,42.40
2022-08-17T11:32:37.257Z,42.40
2022-08-17T11:35:30.273Z,42.30
2022-08-17T11:38:10.831Z,42.20
2022-08-17T11:41:04.575Z,42.40
2022-08-17T11:43:55.411Z,41.40
2022-08-17T11:46:54.319Z,41.60
2022-08-17T11:50:04.617Z,40.90
2022-08-17T11:52:43.552Z,40.10
2022-08-17T11:55:52.778Z,39.60
2022-08-17T11:58:44.271Z,39.70
2022-08-17T12:01:16.183Z,38.60
2022-08-17T12:03:55.360Z,37.20
2022-08-17T12:06:45.778Z,37.00
2022-08-17T12:09:18.639Z,37.00
2022-08-17T12:11:58.731Z,36.30
2022-08-17T12:17:40.740Z,36.00
2022-08-17T12:20:15.259Z,36.00
2022-08-17T12:22:54.804Z,35.60
2022-08-17T12:25:32.960Z,34.90
2022-08-17T12:28:06.411Z,34.80
2022-08-17T12:30:37.802Z,34.60
2022-08-17T12:33:25.778Z,34.70
2022-08-17T12:35:59.698Z,35.20
2022-08-17T12:38:32.294Z,36.10
2022-08-17T12:41:22.312Z,36.60
2022-08-17T12:44:02.254Z,36.70
2022-08-17T12:46:35.675Z,35.90
2022-08-17T12:49:14.922Z,35.70
2022-08-17T12:51:46.940Z,35.60
2022-08-17T12:54:26.295Z,35.60
2022-08-17T12:56:54.850Z,35.60
2022-08-17T12:59:29.835Z,35.30
2022-08-17T13:02:01.233Z,35.50
2022-08-17T13:04:29.917Z,35.60
2022-08-17T13:07:00.291Z,35.50
2022-08-17T13:09:30.952Z,35.50
2022-08-17T13:12:08.474Z,35.40
2022-08-17T13:14:36.802Z,35.90
2022-08-17T13:17:13.196Z,36.70
2022-08-17T13:19:49.200Z,37.70
2022-08-17T13:22:18.500Z,38.70
2022-08-17T13:24:54.381Z,39.60
2022-08-17T13:27:25.119Z,40.10
2022-08-17T13:29:57.223Z,39.80
2022-08-17T13:32:39.945Z,39.10
2022-08-17T13:35:49.894Z,38.00
2022-08-17T13:38:40.479Z,37.10
2022-08-17T13:41:08.920Z,36.50
2022-08-17T13:43:45.007Z,36.20
2022-08-17T13:46:20.314Z,35.60
2022-08-17T13:48:59.155Z,35.20
2022-08-17T13:51:34.986Z,34.90
2022-08-17T13:54:28.781Z,34.80
2022-08-17T13:57:00.482Z,34.60
2022-08-17T13:59:54.527Z,33.80
2022-08-17T14:02:27.672Z,33.80
2022-08-17T14:05:00.649Z,34.00
2022-08-17T14:07:34.796Z,34.10
2022-08-17T14:10:07.808Z,34.20
2022-08-17T14:12:39.220Z,34.30
2022-08-17T14:15:08.834Z,34.30
2022-08-17T14:17:40.866Z,34.20
2022-08-17T14:20:12.967Z,34.30
2022-08-17T14:22:44.444Z,34.40
2022-08-17T14:25:17.213Z,34.60
2022-08-17T14:27:52.951Z,34.80
2022-08-17T14:30:29.859Z,35.00
2022-08-17T14:32:59.164Z,35.00
2022-08-17T14:35:29.401Z,35.10
2022-08-17T14:37:57.770Z,35.10
2022-08-17T14:40:26.889Z,34.80
2022-08-17T14:43:00.218Z,34.60
2022-08-17T14:45:33.016Z,34.50
2022-08-17T14:48:05.704Z,34.40
2022-08-17T14:50:37.415Z,34.10
2022-08-17T14:53:09.391Z,34.00
2022-08-17T14:55:40.504Z,34.00
2022-08-17T14:58:11.794Z,33.90
2022-08-17T15:00:43.569Z,33.80
2022-08-17T15:03:12.521Z,33.60
2022-08-17T15:05:44.908Z,33.40
2022-08-17T15:08:13.839Z,33.30
2022-08-17T15:10:42.164Z,32.90
2022-08-17T15:13:19.993Z,32.70
2022-08-17T15:15:48.625Z,32.60
2022-08-17T15:18:16.863Z,32.50
2022-08-17T15:20:48.933Z,32.40
2022-08-17T15:23:19.168Z,32.30
2022-08-17T15:25:51.541Z,32.30
2022-08-17T15:28:22.747Z,32.20
2022-08-17T15:30:56.094Z,32.10
2022-08-17T15:33:29.776Z,31.80
2022-08-17T15:36:01.379Z,31.50
2022-08-17T15:38:30.791Z,31.40
2022-08-17T15:40:58.850Z,31.30
2022-08-17T15:43:32.527Z,31.30
2022-08-17T15:46:03.519Z,31.20
2022-08-17T15:48:41.928Z,31.10
2022-08-17T15:51:17.697Z,31.00
2022-08-17T15:53:47.967Z,31.00
2022-08-17T15:56:16.900Z,30.90
2022-08-17T15:58:46.778Z,30.80
2022-08-17T16:01:31.305Z,30.70
2022-08-17T16:04:13.268Z,30.50
2022-08-17T16:06:56.117Z,30.30
2022-08-17T16:09:24.461Z,30.10
2022-08-17T16:11:56.149Z,29.90
2022-08-17T16:14:32.367Z,29.80
2022-08-17T16:17:03.423Z,29.70
2022-08-17T16:19:32.605Z,29.50
2022-08-17T16:22:02.265Z,29.50
2022-08-17T16:24:32.055Z,29.30
2022-08-17T16:27:00.329Z,29.20
2022-08-17T16:29:28.721Z,29.00
2022-08-17T16:31:57.479Z,28.90
2022-08-17T16:34:25.907Z,28.70
2022-08-17T16:36:56.449Z,28.60
2022-08-17T16:39:29.293Z,28.50
2022-08-17T16:41:58.198Z,28.30
2022-08-17T16:44:31.651Z,28.30
2022-08-17T16:47:01.089Z,28.10
2022-08-17T16:49:36.605Z,28.00
2022-08-17T16:52:10.468Z,28.00
2022-08-17T16:54:43.641Z,27.90
2022-08-17T16:57:12.671Z,27.90
2022-08-17T16:59:44.891Z,27.90
2022-08-17T17:02:16.849Z,28.00
2022-08-17T17:04:52.160Z,28.00
2022-08-17T17:07:49.570Z,28.10
2022-08-17T17:10:22.125Z,28.10
2022-08-17T17:13:03.812Z,27.90
2022-08-17T17:15:46.604Z,27.40
2022-08-17T17:18:16.812Z,26.80
2022-08-17T17:20:55.199Z,26.40
2022-08-17T17:23:46.141Z,26.10
2022-08-17T17:26:28.350Z,25.90
2022-08-17T17:29:13.676Z,25.90
2022-08-17T17:31:48.630Z,25.80
2022-08-17T17:34:18.478Z,25.70
2022-08-17T17:36:51.487Z,25.80
2022-08-17T17:39:23.285Z,25.70
2022-08-17T17:41:56.178Z,25.70
2022-08-17T17:44:28.716Z,25.60
2022-08-17T17:47:00.614Z,25.50
2022-08-17T17:49:34.255Z,25.40
2022-08-17T17:52:14.433Z,25.30
2022-08-17T17:54:59.995Z,25.20
2022-08-17T17:57:44.098Z,25.10
2022-08-17T18:00:17.537Z,25.00
2022-08-17T18:02:56.519Z,25.00
2022-08-17T18:05:39.303Z,24.90
2022-08-17T18:08:16.483Z,24.90
2022-08-17T18:10:55.832Z,24.80
2022-08-17T18:13:32.563Z,24.70
2022-08-17T18:16:01.966Z,24.60
2022-08-17T18:18:38.836Z,24.60
2022-08-17T18:21:16.057Z,24.40
2022-08-17T18:23:48.664Z,24.30
2022-08-17T18:26:36.999Z,24.10
2022-08-17T18:29:23.445Z,24.00
2022-08-17T18:32:25.570Z,23.80
2022-08-17T18:34:56.217Z,23.60
2022-08-17T18:37:40.997Z,23.50
2022-08-17T18:40:29.114Z,23.30
2022-08-17T18:43:03.011Z,23.20
2022-08-17T18:45:39.530Z,23.10
2022-08-17T18:48:24.258Z,23.00
2022-08-17T18:50:54.106Z,22.90
2022-08-17T18:53:34.978Z,22.80
2022-08-17T18:56:26.971Z,22.70
2022-08-17T18:59:03.287Z,22.60
2022-08-17T19:01:53.519Z,22.50
2022-08-17T19:04:34.847Z,22.50
2022-08-17T19:07:07.902Z,22.40
2022-08-17T19:09:39.326Z,22.30
2022-08-17T19:12:11.239Z,22.30
2022-08-17T19:14:39.632Z,22.20
2022-08-17T19:17:24.356Z,22.10
2022-08-17T19:19:59.070Z,22.10
2022-08-17T19:22:31.249Z,22.00
2022-08-17T19:25:09.287Z,21.90
2022-08-17T19:27:49.154Z,21.90
2022-08-17T19:30:20.359Z,21.80
2022-08-17T19:32:50.964Z,21.70
2022-08-17T19:35:22.173Z,21.60
2022-08-17T19:38:01.378Z,21.50
2022-08-17T19:43:28.717Z,21.40
2022-08-17T19:46:06.161Z,21.40
2022-08-17T19:48:45.672Z,21.30
2022-08-17T19:51:20.454Z,21.20
2022-08-17T19:54:05.467Z,21.20
2022-08-17T19:56:42.553Z,21.10
2022-08-17T19:59:16.899Z,21.00
2022-08-17T20:01:52.279Z,20.90
2022-08-17T20:04:34.968Z,20.90
2022-08-17T20:07:07.446Z,20.80
2022-08-17T20:09:39.153Z,20.80
2022-08-17T20:12:11.519Z,20.70
2022-08-17T20:14:55.051Z,20.60
2022-08-17T20:17:28.640Z,20.60
2022-08-17T20:20:06.249Z,20.50
2022-08-17T20:22:53.582Z,20.50
2022-08-17T20:25:30.088Z,20.50
2022-08-17T20:28:07.030Z,20.40
2022-08-17T20:30:38.731Z,20.30
2022-08-17T20:33:13.128Z,20.30
2022-08-17T20:36:03.057Z,20.30
2022-08-17T20:38:43.586Z,20.20
2022-08-17T20:41:15.597Z,20.20
2022-08-17T20:43:52.102Z,20.10
2022-08-17T20:46:31.534Z,20.10
2022-08-17T20:49:15.664Z,20.10
2022-08-17T20:52:00.674Z,20.00
2022-08-17T20:54:47.683Z,20.00
2022-08-17T20:57:47.470Z,20.00
2022-08-17T21:00:44.696Z,20.00
2022-08-17T21:03:50.222Z,20.00
2022-08-17T21:06:25.442Z,19.90
2022-08-17T21:08:59.501Z,19.90
2022-08-17T21:12:03.898Z,19.90
2022-08-17T21:14:58.139Z,19.80
2022-08-17T21:17:38.524Z,19.80
2022-08-17T21:20:23.589Z,19.80
2022-08-17T21:23:17.121Z,19.80
2022-08-17T21:26:10.838Z,19.90
2022-08-17T21:29:00.965Z,19.90
2022-08-17T21:31:34.281Z,19.90
2022-08-17T21:34:26.020Z,19.80
2022-08-17T21:36:56.901Z,19.80
2022-08-17T21:39:34.116Z,19.80
2022-08-17T21:42:05.745Z,19.80
2022-08-17T21:44:38.413Z,19.80
2022-08-17T21:47:16.766Z,19.70
2022-08-17T21:49:44.838Z,19.70
2022-08-17T21:52:17.502Z,19.70
2022-08-17T21:54:52.356Z,19.70
2022-08-17T21:57:23.839Z,19.60
2022-08-17T21:59:55.023Z,19.60
2022-08-17T22:02:26.316Z,19.60
2022-08-17T22:05:00.154Z,19.60
2022-08-17T22:07:38.657Z,19.50
2022-08-17T22:10:26.924Z,19.50
2022-08-17T22:13:06.039Z,19.50
2022-08-17T22:15:48.226Z,19.60
2022-08-17T22:18:20.897Z,19.60
2022-08-17T22:20:51.723Z,19.60
2022-08-17T22:23:43.812Z,19.60
2022-08-17T22:26:15.729Z,19.60
2022-08-17T22:28:47.407Z,19.70
2022-08-17T22:31:17.835Z,19.70
2022-08-17T22:33:49.394Z,19.70
2022-08-17T22:36:29.516Z,19.70
2022-08-17T22:38:59.492Z,19.70
2022-08-17T22:41:41.491Z,19.60
2022-08-17T22:44:27.148Z,19.60
2022-08-17T22:47:00.087Z,19.60
2022-08-17T22:49:32.207Z,19.60
2022-08-17T22:52:08.243Z,19.50
2022-08-17T22:54:53.801Z,19.50
2022-08-17T22:57:50.820Z,19.50
2022-08-17T23:00:38.464Z,19.40
2022-08-17T23:03:18.653Z,19.40
2022-08-17T23:05:49.135Z,19.40
2022-08-17T23:08:21.924Z,19.50
2022-08-17T23:10:50.590Z,19.50
2022-08-17T23:13:18.699Z,19.50
2022-08-17T23:15:50.570Z,19.50
2022-08-17T23:18:19.082Z,19.50
2022-08-17T23:20:47.701Z,19.60
2022-08-17T23:23:18.817Z,19.60
2022-08-17T23:25:50.692Z,19.60
2022-08-17T23:28:19.842Z,19.70
2022-08-17T23:30:49.879Z,19.70
2022-08-17T23:33:21.286Z,19.80
2022-08-17T23:35:50.147Z,19.80
2022-08-17T23:38:18.345Z,19.80
2022-08-17T23:40:46.775Z,19.90
2022-08-17T23:43:24.605Z,19.90
2022-08-17T23:45:59.664Z,19.90
2022-08-17T23:48:35.778Z,19.90
2022-08-17T23:51:08.596Z,19.90
2022-08-17T23:53:38.740Z,19.90
2022-08-17T23:56:11.175Z,19.90
2022-08-17T23:58:42.308Z,19.90
